createdAt,value
2018-05-15T00:01:37.933Z,21.90
2018-05-15T00:04:05.440Z,18.13
2018-05-15T00:06:33.037Z,19.93
2018-05-15T00:09:00.747Z,27.03
2018-05-15T00:11:28.304Z,22.50
2018-05-15T00:13:55.967Z,20.63
2018-05-15T00:16:23.494Z,17.40
2018-05-15T00:18:51.017Z,19.60
2018-05-15T00:21:18.547Z,27.57
2018-05-15T00:23:46.143Z,26.60
2018-05-15T00:26:13.723Z,18.47
2018-05-15T00:28:41.252Z,24.33
2018-05-15T00:31:08.938Z,15.10
2018-05-15T00:33:36.474Z,20.63
2018-05-15T00:36:04.089Z,18.60
2018-05-15T00:38:31.978Z,20.53
2018-05-15T00:40:59.529Z,25.53
2018-05-15T00:43:27.067Z,19.20
2018-05-15T00:45:54.687Z,18.17
2018-05-15T00:48:22.285Z,20.50
2018-05-15T00:50:49.876Z,21.20
2018-05-15T00:53:17.432Z,18.43
2018-05-15T00:55:45.000Z,18.07
2018-05-15T00:58:12.581Z,23.53
2018-05-15T01:00:40.195Z,21.20
2018-05-15T01:03:07.911Z,17.20
2018-05-15T01:05:35.449Z,21.23
2018-05-15T01:08:02.950Z,16.13
2018-05-15T01:10:30.818Z,17.57
2018-05-15T01:12:58.334Z,22.93
2018-05-15T01:15:25.906Z,23.57
2018-05-15T01:17:53.685Z,22.83
2018-05-15T01:20:21.224Z,30.47
2018-05-15T01:22:48.735Z,17.93
2018-05-15T01:25:16.779Z,18.10
2018-05-15T01:27:44.401Z,21.40
2018-05-15T01:30:12.167Z,21.67
2018-05-15T01:32:39.975Z,15.50
2018-05-15T01:35:07.593Z,20.83
2018-05-15T01:37:35.188Z,32.20
2018-05-15T01:40:03.637Z,21.97
2018-05-15T01:42:31.162Z,23.60
2018-05-15T01:44:58.785Z,22.00
2018-05-15T01:47:26.387Z,21.93
2018-05-15T01:49:54.234Z,27.00
2018-05-15T01:52:21.857Z,19.67
2018-05-15T01:54:49.436Z,35.70
2018-05-15T01:57:16.961Z,17.47
2018-05-15T01:59:44.524Z,18.20
2018-05-15T02:02:12.052Z,23.17
2018-05-15T02:04:39.609Z,21.10
2018-05-15T02:07:07.184Z,27.13
2018-05-15T02:09:34.737Z,25.63
2018-05-15T02:12:02.394Z,24.10
2018-05-15T02:14:29.914Z,28.77
2018-05-15T02:16:57.619Z,17.10
2018-05-15T02:19:25.148Z,21.27
2018-05-15T02:21:52.687Z,19.60
2018-05-15T02:24:20.217Z,21.10
2018-05-15T02:26:47.778Z,19.50
2018-05-15T02:29:15.613Z,19.57
2018-05-15T02:31:43.482Z,25.23
2018-05-15T02:34:11.093Z,21.10
2018-05-15T02:36:38.909Z,29.73
2018-05-15T02:39:06.429Z,22.37
2018-05-15T02:41:34.008Z,20.63
2018-05-15T02:44:01.551Z,15.50
2018-05-15T02:46:29.579Z,17.57
2018-05-15T02:48:57.168Z,19.77
2018-05-15T02:51:24.730Z,16.87
2018-05-15T02:53:52.289Z,20.70
2018-05-15T02:56:19.783Z,23.60
2018-05-15T02:58:47.397Z,21.60
2018-05-15T03:01:14.870Z,22.20
2018-05-15T03:03:42.691Z,18.03
2018-05-15T03:06:10.412Z,15.70
2018-05-15T03:08:37.953Z,20.47
2018-05-15T03:11:05.465Z,21.57
2018-05-15T03:13:32.988Z,25.53
2018-05-15T03:16:00.488Z,20.70
2018-05-15T03:18:28.070Z,18.87
2018-05-15T03:20:55.584Z,18.80
2018-05-15T03:23:23.121Z,21.20
2018-05-15T03:25:51.340Z,16.63
2018-05-15T03:28:19.126Z,22.07
2018-05-15T03:30:46.668Z,22.63
2018-05-15T03:33:14.677Z,57.60
2018-05-15T03:35:42.207Z,25.37
2018-05-15T03:38:09.751Z,17.43
2018-05-15T03:40:37.832Z,17.60
2018-05-15T03:43:05.322Z,26.70
2018-05-15T03:45:32.837Z,19.83
2018-05-15T03:48:00.371Z,42.93
2018-05-15T03:50:28.012Z,20.80
2018-05-15T03:52:55.553Z,29.20
2018-05-15T03:55:23.115Z,21.83
2018-05-15T03:57:50.655Z,25.13
2018-05-15T04:00:30.194Z,18.90
2018-05-15T04:03:09.445Z,20.23
2018-05-15T04:05:49.051Z,34.97
2018-05-15T04:08:16.574Z,22.53
2018-05-15T04:10:44.215Z,19.83
2018-05-15T04:13:11.769Z,18.60
2018-05-15T04:15:39.363Z,22.33
2018-05-15T04:18:07.647Z,21.90
2018-05-15T04:20:35.165Z,31.10
2018-05-15T04:23:02.679Z,20.23
2018-05-15T04:25:30.206Z,25.40
2018-05-15T04:27:57.769Z,18.80
2018-05-15T04:30:25.317Z,26.33
2018-05-15T04:32:52.842Z,18.43
2018-05-15T04:35:20.623Z,20.67
2018-05-15T04:37:47.982Z,33.57
2018-05-15T04:40:15.503Z,27.20
2018-05-15T04:42:43.200Z,17.47
2018-05-15T04:45:10.727Z,32.10
2018-05-15T04:47:38.255Z,31.37
2018-05-15T04:50:06.107Z,22.80
2018-05-15T04:52:33.640Z,26.23
2018-05-15T04:55:01.251Z,18.70
2018-05-15T04:57:28.767Z,25.90
2018-05-15T04:59:57.219Z,25.67
2018-05-15T05:02:24.744Z,21.60
2018-05-15T05:04:52.358Z,24.57
2018-05-15T05:07:19.921Z,22.40
2018-05-15T05:09:47.454Z,24.00
2018-05-15T05:12:15.665Z,30.53
2018-05-15T05:14:43.355Z,30.40
2018-05-15T05:17:10.938Z,35.03
2018-05-15T05:19:38.446Z,32.37
2018-05-15T05:22:06.029Z,27.83
2018-05-15T05:24:33.524Z,26.23
2018-05-15T05:27:01.041Z,36.33
2018-05-15T05:29:28.812Z,34.93
2018-05-15T05:31:56.341Z,38.43
2018-05-15T05:34:23.866Z,40.20
2018-05-15T05:36:51.389Z,21.17
2018-05-15T05:39:18.969Z,24.30
2018-05-15T05:41:46.822Z,31.53
2018-05-15T05:44:14.366Z,34.53
2018-05-15T05:46:42.153Z,24.03
2018-05-15T05:49:09.672Z,30.93
2018-05-15T05:51:37.228Z,28.23
2018-05-15T05:54:04.737Z,26.03
2018-05-15T05:56:32.279Z,23.50
2018-05-15T05:58:59.853Z,28.20
2018-05-15T06:01:27.377Z,35.03
2018-05-15T06:03:54.955Z,24.50
2018-05-15T06:06:22.505Z,22.30
2018-05-15T06:08:50.319Z,24.07
2018-05-15T06:11:17.859Z,27.53
2018-05-15T06:13:45.724Z,22.63
2018-05-15T06:16:13.291Z,31.43
2018-05-15T06:18:40.823Z,39.73
2018-05-15T06:21:08.382Z,32.23
2018-05-15T06:23:35.887Z,27.57
2018-05-15T06:26:03.407Z,32.27
2018-05-15T06:28:30.972Z,23.40
2018-05-15T06:30:58.526Z,20.80
2018-05-15T06:33:26.114Z,26.87
2018-05-15T06:35:53.680Z,39.37
2018-05-15T06:38:21.404Z,22.23
2018-05-15T06:40:48.911Z,43.17
2018-05-15T06:43:16.495Z,21.80
2018-05-15T06:45:44.066Z,33.20
2018-05-15T06:48:11.783Z,26.70
2018-05-15T06:50:39.334Z,25.40
2018-05-15T06:53:07.282Z,29.33
2018-05-15T06:55:35.883Z,25.27
2018-05-15T06:58:03.461Z,27.97
2018-05-15T07:00:31.131Z,28.67
2018-05-15T07:02:58.653Z,36.10
2018-05-15T07:05:26.551Z,22.40
2018-05-15T07:07:54.115Z,31.10
2018-05-15T07:10:21.687Z,29.97
2018-05-15T07:12:49.231Z,33.50
2018-05-15T07:15:16.823Z,21.03
2018-05-15T07:17:44.352Z,75.30
2018-05-15T07:20:12.148Z,72.30
2018-05-15T07:22:39.684Z,34.67
2018-05-15T07:25:07.547Z,22.63
2018-05-15T07:27:35.086Z,29.57
2018-05-15T07:30:02.593Z,30.80
2018-05-15T07:32:30.182Z,26.03
2018-05-15T07:34:57.737Z,31.30
2018-05-15T07:37:25.244Z,25.90
2018-05-15T07:39:52.778Z,28.10
2018-05-15T07:42:20.288Z,23.03
2018-05-15T07:44:48.002Z,25.97
2018-05-15T07:47:15.517Z,24.03
2018-05-15T07:49:43.042Z,29.80
2018-05-15T07:52:10.632Z,24.23
2018-05-15T07:54:38.347Z,20.53
2018-05-15T07:57:05.886Z,25.57
2018-05-15T07:59:33.416Z,21.10
2018-05-15T08:02:01.040Z,19.67
2018-05-15T08:04:28.701Z,31.90
2018-05-15T08:06:56.211Z,31.60
2018-05-15T08:09:24.055Z,28.10
2018-05-15T08:11:51.550Z,19.23
2018-05-15T08:14:19.107Z,19.63
2018-05-15T08:16:46.957Z,21.27
2018-05-15T08:19:14.539Z,26.03
2018-05-15T08:21:42.072Z,27.13
2018-05-15T08:24:09.829Z,19.10
2018-05-15T08:26:37.338Z,24.90
2018-05-15T08:29:04.893Z,17.33
2018-05-15T08:31:32.439Z,27.40
2018-05-15T08:34:00.083Z,25.20
2018-05-15T08:36:27.790Z,24.30
2018-05-15T08:38:55.509Z,28.23
2018-05-15T08:41:23.371Z,23.90
2018-05-15T08:43:51.133Z,18.20
2018-05-15T08:46:18.681Z,22.03
2018-05-15T08:48:46.275Z,17.60
2018-05-15T08:51:13.804Z,21.80
2018-05-15T08:53:41.366Z,19.07
2018-05-15T08:56:08.952Z,19.77
2018-05-15T08:58:36.450Z,19.83
2018-05-15T09:01:04.018Z,18.27
2018-05-15T09:03:31.821Z,19.53
2018-05-15T09:05:59.408Z,21.73
2018-05-15T09:08:26.985Z,17.27
2018-05-15T09:10:54.500Z,23.60
2018-05-15T09:13:22.019Z,32.17
2018-05-15T09:15:49.673Z,22.57
2018-05-15T09:18:17.700Z,27.37
2018-05-15T09:20:45.150Z,20.47
2018-05-15T09:23:12.764Z,19.20
2018-05-15T09:25:40.290Z,18.83
2018-05-15T09:28:08.236Z,23.40
2018-05-15T09:30:35.799Z,25.70
2018-05-15T09:33:03.332Z,23.73
2018-05-15T09:35:31.018Z,78.73
2018-05-15T09:37:58.902Z,43.20
2018-05-15T09:40:26.666Z,20.87
2018-05-15T09:42:54.199Z,14.33
2018-05-15T09:45:21.762Z,15.23
2018-05-15T09:47:49.372Z,17.97
2018-05-15T09:50:16.915Z,23.37
2018-05-15T09:52:44.449Z,22.30
2018-05-15T09:55:11.982Z,18.67
2018-05-15T09:57:39.483Z,18.07
2018-05-15T10:00:07.045Z,20.27
2018-05-15T10:02:34.575Z,26.50
2018-05-15T10:05:02.482Z,30.40
2018-05-15T10:07:30.451Z,29.60
2018-05-15T10:09:57.966Z,24.77
2018-05-15T10:12:25.466Z,25.03
2018-05-15T10:14:53.332Z,17.53
2018-05-15T10:17:20.863Z,20.67
2018-05-15T10:19:48.436Z,32.53
2018-05-15T10:22:16.320Z,22.93
2018-05-15T10:24:43.867Z,16.23
2018-05-15T10:27:11.508Z,23.80
2018-05-15T10:29:39.310Z,22.77
2018-05-15T10:32:06.835Z,27.00
2018-05-15T10:34:34.705Z,20.53
2018-05-15T10:37:02.312Z,20.30
2018-05-15T10:39:30.168Z,37.57
2018-05-15T10:41:58.595Z,16.13
2018-05-15T10:44:26.214Z,15.60
2018-05-15T10:46:53.749Z,25.87
2018-05-15T10:49:22.766Z,17.27
2018-05-15T10:51:50.659Z,16.17
2018-05-15T10:54:18.215Z,16.00
2018-05-15T10:56:45.867Z,18.00
2018-05-15T10:59:13.406Z,21.30
2018-05-15T11:01:40.929Z,15.03
2018-05-15T11:04:08.985Z,25.07
2018-05-15T11:06:37.230Z,14.97
2018-05-15T11:09:04.857Z,16.20
2018-05-15T11:11:32.531Z,29.13
2018-05-15T11:14:00.216Z,23.13
2018-05-15T11:16:27.781Z,18.77
2018-05-15T11:18:55.554Z,23.73
2018-05-15T11:21:35.431Z,21.97
2018-05-15T11:28:22.605Z,29.83
2018-05-15T11:30:50.140Z,26.03
2018-05-15T11:33:22.624Z,20.40
2018-05-15T11:35:50.551Z,16.10
2018-05-15T11:38:20.479Z,19.77
2018-05-15T11:40:49.944Z,27.40
2018-05-15T11:43:17.584Z,35.23
2018-05-15T11:45:45.491Z,16.33
2018-05-15T11:48:14.141Z,22.43
2018-05-15T11:50:42.972Z,16.33
2018-05-15T11:53:10.638Z,22.30
2018-05-15T11:55:42.711Z,12.73
2018-05-15T11:58:05.235Z,17.70
2018-05-15T12:00:35.074Z,17.90
2018-05-15T12:03:02.630Z,26.30
2018-05-15T12:05:30.847Z,30.33
2018-05-15T12:07:59.235Z,22.43
2018-05-15T12:10:26.883Z,19.17
2018-05-15T12:12:54.470Z,21.97
2018-05-15T12:15:22.280Z,25.47
2018-05-15T12:17:51.605Z,17.77
2018-05-15T12:20:19.164Z,15.10
2018-05-15T12:22:47.194Z,19.80
2018-05-15T12:25:14.790Z,15.80
2018-05-15T12:27:43.322Z,21.40
2018-05-15T12:30:09.892Z,21.93
2018-05-15T12:32:37.442Z,14.70
2018-05-15T12:35:05.114Z,16.53
2018-05-15T12:37:32.916Z,21.03
2018-05-15T12:40:00.602Z,26.43
2018-05-15T12:42:28.202Z,19.60
2018-05-15T12:44:55.725Z,16.77
2018-05-15T12:47:23.292Z,15.50
2018-05-15T12:49:50.971Z,33.10
2018-05-15T12:52:18.590Z,15.00
2018-05-15T12:54:46.139Z,21.20
2018-05-15T12:57:13.702Z,19.63
2018-05-15T12:59:41.211Z,16.20
2018-05-15T13:02:08.825Z,18.93
2018-05-15T13:04:36.337Z,21.10
2018-05-15T13:07:03.925Z,29.63
2018-05-15T13:09:31.690Z,20.37
2018-05-15T13:11:59.176Z,16.47
2018-05-15T13:14:27.622Z,16.80
2018-05-15T13:16:55.251Z,15.00
2018-05-15T13:19:22.895Z,34.67
2018-05-15T13:21:50.417Z,22.70
2018-05-15T13:24:17.966Z,22.80
2018-05-15T13:26:45.491Z,24.07
2018-05-15T13:29:13.405Z,20.47
2018-05-15T13:31:40.919Z,47.23
2018-05-15T13:34:08.447Z,23.13
2018-05-15T13:36:36.096Z,13.00
2018-05-15T13:39:03.645Z,17.30
2018-05-15T13:41:31.500Z,20.63
2018-05-15T13:43:59.084Z,15.60
2018-05-15T13:46:26.591Z,18.70
2018-05-15T13:48:54.144Z,18.93
2018-05-15T13:51:21.655Z,17.27
2018-05-15T13:53:49.227Z,22.50
2018-05-15T13:56:16.831Z,49.70
2018-05-15T13:58:44.636Z,13.40
2018-05-15T14:01:12.191Z,17.23
2018-05-15T14:03:39.714Z,25.33
2018-05-15T14:06:07.269Z,16.10
2018-05-15T14:08:34.812Z,20.53
2018-05-15T14:11:02.656Z,14.07
2018-05-15T14:13:30.208Z,16.70
2018-05-15T14:15:57.817Z,14.67
2018-05-15T14:18:25.452Z,13.17
2018-05-15T14:20:53.481Z,13.33
2018-05-15T14:23:21.519Z,18.10
2018-05-15T14:25:49.153Z,14.00
2018-05-15T14:28:16.670Z,17.30
2018-05-15T14:30:44.277Z,15.73
2018-05-15T14:33:11.852Z,27.53
2018-05-15T14:35:39.372Z,23.43
2018-05-15T14:38:06.928Z,15.43
2018-05-15T14:40:34.482Z,18.73
2018-05-15T14:43:14.822Z,19.30
2018-05-15T14:45:42.352Z,18.63
2018-05-15T14:48:09.877Z,20.63
2018-05-15T14:50:49.356Z,19.00
2018-05-15T14:53:17.042Z,17.20
2018-05-15T14:55:44.616Z,20.03
2018-05-15T14:58:12.199Z,25.17
2018-05-15T15:00:39.731Z,21.07
2018-05-15T15:03:07.349Z,21.30
2018-05-15T15:05:34.915Z,31.73
2018-05-15T15:08:02.588Z,20.77
2018-05-15T15:10:30.143Z,25.20
2018-05-15T15:12:57.712Z,16.00
2018-05-15T15:15:25.251Z,13.70
2018-05-15T15:17:53.574Z,26.37
2018-05-15T15:20:22.034Z,15.93
2018-05-15T15:22:49.615Z,18.50
2018-05-15T15:25:17.515Z,19.70
2018-05-15T15:27:45.477Z,24.10
2018-05-15T15:30:13.316Z,13.20
2018-05-15T15:32:40.898Z,15.93
2018-05-15T15:35:08.450Z,19.07
2018-05-15T15:37:36.323Z,18.07
2018-05-15T15:40:04.067Z,15.53
2018-05-15T15:42:31.726Z,27.43
2018-05-15T15:44:59.186Z,15.07
2018-05-15T15:47:26.753Z,21.07
2018-05-15T15:49:54.319Z,16.07
2018-05-15T15:52:21.829Z,17.00
2018-05-15T15:54:50.558Z,15.50
2018-05-15T15:57:18.216Z,14.70
2018-05-15T15:59:45.821Z,13.70
2018-05-15T16:02:13.452Z,13.00
2018-05-15T16:04:42.502Z,18.30
2018-05-15T16:07:10.499Z,19.17
2018-05-15T16:09:38.105Z,12.77
2018-05-15T16:12:06.004Z,14.37
2018-05-15T16:14:33.805Z,14.73
2018-05-15T16:17:01.752Z,16.00
2018-05-15T16:19:29.958Z,14.57
2018-05-15T16:21:58.006Z,13.57
2018-05-15T16:24:25.632Z,13.40
2018-05-15T16:26:53.204Z,12.00
2018-05-15T16:29:20.975Z,15.20
2018-05-15T16:31:48.588Z,18.57
2018-05-15T16:34:16.166Z,15.43
2018-05-15T16:36:44.159Z,13.50
2018-05-15T16:39:12.239Z,15.13
2018-05-15T16:41:39.790Z,15.30
2018-05-15T16:44:07.522Z,17.23
2018-05-15T16:46:35.099Z,13.80
2018-05-15T16:49:03.025Z,15.53
2018-05-15T16:51:30.594Z,15.13
2018-05-15T16:53:58.159Z,14.30
2018-05-15T16:56:25.691Z,18.70
2018-05-15T16:58:53.490Z,12.57
2018-05-15T17:01:21.165Z,16.40
2018-05-15T17:03:48.695Z,15.07
2018-05-15T17:06:16.289Z,15.20
2018-05-15T17:08:43.838Z,17.53
2018-05-15T17:11:11.551Z,17.80
2018-05-15T17:13:39.239Z,19.53
2018-05-15T17:16:06.704Z,18.50
2018-05-15T17:18:34.381Z,17.10
2018-05-15T17:21:02.242Z,17.53
2018-05-15T17:23:29.843Z,15.77
2018-05-15T17:25:57.505Z,16.30
2018-05-15T17:28:25.019Z,14.20
2018-05-15T17:30:52.682Z,15.17
2018-05-15T17:33:20.225Z,19.67
2018-05-15T17:35:47.770Z,17.07
2018-05-15T17:38:15.299Z,17.33
2018-05-15T17:40:43.279Z,12.70
2018-05-15T17:43:10.854Z,13.40
2018-05-15T17:45:38.448Z,14.50
2018-05-15T17:48:06.021Z,15.23
2018-05-15T17:50:34.481Z,15.50
2018-05-15T17:53:02.333Z,18.60
2018-05-15T17:55:30.308Z,16.87
2018-05-15T17:57:59.227Z,17.30
2018-05-15T18:00:26.914Z,19.67
2018-05-15T18:02:54.453Z,24.30
2018-05-15T18:05:22.051Z,25.70
2018-05-15T18:07:49.609Z,28.57
2018-05-15T18:10:17.209Z,37.70
2018-05-15T18:12:45.349Z,59.13
2018-05-15T18:15:12.955Z,57.47
2018-05-15T18:17:40.802Z,90.20
2018-05-15T18:20:09.296Z,99.00
2018-05-15T18:22:36.815Z,94.47
2018-05-15T18:25:04.523Z,66.30
2018-05-15T18:27:32.336Z,59.73
2018-05-15T18:29:59.980Z,61.37
2018-05-15T18:32:27.979Z,47.30
2018-05-15T18:34:55.565Z,28.23
2018-05-15T18:37:24.652Z,20.90
2018-05-15T18:39:52.168Z,31.87
2018-05-15T18:42:19.722Z,23.40
2018-05-15T18:44:47.555Z,16.17
2018-05-15T18:47:15.127Z,27.83
2018-05-15T18:49:42.657Z,22.83
2018-05-15T18:52:10.247Z,18.70
2018-05-15T18:54:38.063Z,14.57
2018-05-15T18:57:05.779Z,21.47
2018-05-15T18:59:33.427Z,15.37
2018-05-15T19:02:01.026Z,21.27
2018-05-15T19:04:28.560Z,19.67
2018-05-15T19:06:56.419Z,17.20
2018-05-15T19:09:24.101Z,24.47
2018-05-15T19:11:51.656Z,15.67
2018-05-15T19:14:19.242Z,19.93
2018-05-15T19:16:46.763Z,16.30
2018-05-15T19:19:14.364Z,15.40
2018-05-15T19:21:41.849Z,17.30
2018-05-15T19:24:09.442Z,16.70
2018-05-15T19:26:37.414Z,16.67
2018-05-15T19:29:04.943Z,14.83
2018-05-15T19:31:37.683Z,16.80
2018-05-15T19:34:11.188Z,15.90
2018-05-15T19:36:44.434Z,19.90
2018-05-15T19:39:12.333Z,15.30
2018-05-15T19:41:39.908Z,18.00
2018-05-15T19:44:07.439Z,19.33
2018-05-15T19:46:34.965Z,18.40
2018-05-15T19:49:02.516Z,16.17
2018-05-15T19:51:30.052Z,20.53
2018-05-15T19:53:58.192Z,17.13
2018-05-15T19:56:25.971Z,15.27
2018-05-15T19:58:53.840Z,17.87
2018-05-15T20:01:21.344Z,22.20
2018-05-15T20:03:48.876Z,18.80
2018-05-15T20:06:16.454Z,17.47
2018-05-15T20:08:44.140Z,19.67
2018-05-15T20:11:11.801Z,19.40
2018-05-15T20:13:39.348Z,20.70
2018-05-15T20:16:06.951Z,22.43
2018-05-15T20:18:35.168Z,23.83
2018-05-15T20:21:03.116Z,22.40
2018-05-15T20:23:30.682Z,33.60
2018-05-15T20:25:58.253Z,19.23
2018-05-15T20:28:25.892Z,20.20
2018-05-15T20:30:53.650Z,18.50
2018-05-15T20:33:21.233Z,22.87
2018-05-15T20:35:48.769Z,23.17
2018-05-15T20:38:16.303Z,18.83
2018-05-15T20:40:43.822Z,24.30
2018-05-15T20:43:11.714Z,20.77
2018-05-15T20:45:39.251Z,30.13
2018-05-15T20:48:06.778Z,35.43
2018-05-15T20:50:34.322Z,19.63
2018-05-15T20:53:01.924Z,29.43
2018-05-15T20:55:29.447Z,26.80
2018-05-15T20:57:56.998Z,30.47
2018-05-15T21:00:26.553Z,27.00
2018-05-15T21:02:54.104Z,23.33
2018-05-15T21:05:21.671Z,28.23
2018-05-15T21:07:49.252Z,23.17
2018-05-15T21:10:16.985Z,23.57
2018-05-15T21:12:45.479Z,21.00
2018-05-15T21:15:15.678Z,20.13
2018-05-15T21:17:44.282Z,20.30
2018-05-15T21:20:15.483Z,25.17
2018-05-15T21:22:43.111Z,35.17
2018-05-15T21:25:10.919Z,25.20
2018-05-15T21:27:38.822Z,22.10
2018-05-15T21:30:06.380Z,22.10
2018-05-15T21:32:34.190Z,27.50
2018-05-15T21:35:01.737Z,26.23
2018-05-15T21:37:29.392Z,30.83
2018-05-15T21:39:56.909Z,26.43
2018-05-15T21:42:25.119Z,45.40
2018-05-15T21:44:52.882Z,23.53
2018-05-15T21:47:20.471Z,20.37
2018-05-15T21:49:48.297Z,27.67
2018-05-15T21:52:15.803Z,30.30
2018-05-15T21:54:43.330Z,26.83
2018-05-15T21:57:10.847Z,25.13
2018-05-15T21:59:38.384Z,21.80
2018-05-15T22:02:05.895Z,21.20
2018-05-15T22:04:33.671Z,29.33
2018-05-15T22:07:01.853Z,24.10
2018-05-15T22:09:29.373Z,29.83
2018-05-15T22:12:08.610Z,22.87
2018-05-15T22:14:48.049Z,24.23
2018-05-15T22:17:27.442Z,28.40
2018-05-15T22:20:06.807Z,24.40
2018-05-15T22:22:33.829Z,26.13
2018-05-15T22:25:01.936Z,29.03
2018-05-15T22:27:29.612Z,27.43
2018-05-15T22:29:57.295Z,32.53
2018-05-15T22:32:24.817Z,32.70
2018-05-15T22:34:52.469Z,28.37
2018-05-15T22:37:20.282Z,23.33
2018-05-15T22:39:47.810Z,23.57
2018-05-15T22:42:15.354Z,28.10
2018-05-15T22:44:42.885Z,27.27
2018-05-15T22:47:10.419Z,40.73
2018-05-15T22:49:37.952Z,22.47
2018-05-15T22:52:05.756Z,25.60
2018-05-15T22:54:33.634Z,25.13
2018-05-15T22:57:01.132Z,24.80
2018-05-15T22:59:28.653Z,26.80
2018-05-15T23:01:56.151Z,31.73
2018-05-15T23:04:23.683Z,29.17
2018-05-15T23:06:51.216Z,31.50
2018-05-15T23:09:18.741Z,26.20
2018-05-15T23:11:46.260Z,23.70
2018-05-15T23:14:13.797Z,31.70
2018-05-15T23:16:41.563Z,33.60
2018-05-15T23:19:09.070Z,38.90
2018-05-15T23:21:36.890Z,31.60
2018-05-15T23:24:04.460Z,30.50
2018-05-15T23:26:31.988Z,29.00
2018-05-15T23:28:59.503Z,34.07
2018-05-15T23:31:27.040Z,29.80
2018-05-15T23:33:54.702Z,36.13
2018-05-15T23:36:22.261Z,42.37
2018-05-15T23:38:50.125Z,30.07
2018-05-15T23:41:17.660Z,36.50
2018-05-15T23:43:45.255Z,32.90
2018-05-15T23:46:12.804Z,35.03
2018-05-15T23:48:40.302Z,32.40
2018-05-15T23:51:07.823Z,29.80
2018-05-15T23:53:35.691Z,31.53
2018-05-15T23:56:03.226Z,29.40
2018-05-15T23:58:30.752Z,27.50
